Airport View

Enter AWOS ICAO identifier for current METAR.

ex. KFNL

KSOW 171015Z AUTO 00000KT 10SM CLR M02/M08 A3028 RMK AO2

17 Nov 2019 10:23

Frequency: 118.075

Phone: 928-532-0379

Other Area AWOS: KTYL - KSJN - KJTC - KINW

TAF KINW 170521Z 1706/1806 VRB05KT P6SM SKC